SAS78 BGSF-BIKF
Flight info
| Callsign | SAS78 |
|---|---|
| Flight time | N/A |
| Altitude | 27000 |
| Route | BGSF/27 WUTAN UW28 DA UT592 NONRO/M079F390 DCT GIRUG GIRUG4K |
| Aircraft | A20N/M-SDE2E3FGHIRWXY/LB1 |
Departure
| Time | 2026-04-27 07:09 |
|---|---|
| Airport | Kangerlussuaq International Airport (BGSF) |
Arrival
| Time | N/A |
|---|---|
| Airport | Keflavik International Airport (BIKF) |
| Time | Latitude | Longitude | Altitude | Speed | Heading |
|---|---|---|---|---|---|
| 2026-04-27 06:51 | 67.00798 | -50.71534 | 175 ft | 0 kts | 142° |
| 2026-04-27 07:04 | 67.00796 | -50.71525 | 175 ft | 1 kts | 114° |
| 2026-04-27 07:04 | 67.00836 | -50.71411 | 176 ft | 11 kts | 43° |
| 2026-04-27 07:04 | 67.00888 | -50.71286 | 178 ft | 10 kts | 43° |
| 2026-04-27 07:05 | 67.00957 | -50.71053 | 181 ft | 17 kts | 61° |
| 2026-04-27 07:05 | 67.01010 | -50.70808 | 199 ft | 15 kts | 61° |
| 2026-04-27 07:05 | 67.01045 | -50.70579 | 196 ft | 13 kts | 73° |
| 2026-04-27 07:05 | 67.01072 | -50.70380 | 200 ft | 11 kts | 69° |
| 2026-04-27 07:06 | 67.01102 | -50.70225 | 200 ft | 9 kts | 60° |
| 2026-04-27 07:06 | 67.01144 | -50.70029 | 205 ft | 21 kts | 62° |
| 2026-04-27 07:06 | 67.01211 | -50.69709 | 199 ft | 20 kts | 61° |
| 2026-04-27 07:06 | 67.01286 | -50.69460 | 206 ft | 16 kts | 36° |
| 2026-04-27 07:07 | 67.01366 | -50.69294 | 210 ft | 14 kts | 39° |
| 2026-04-27 07:07 | 67.01444 | -50.69146 | 209 ft | 17 kts | 36° |
| 2026-04-27 07:07 | 67.01545 | -50.69018 | 212 ft | 15 kts | 17° |
| 2026-04-27 07:07 | 67.01636 | -50.69068 | 212 ft | 11 kts | 322° |
| 2026-04-27 07:08 | 67.01648 | -50.69139 | 214 ft | 0 kts | 239° |
| 2026-04-27 07:08 | 67.01648 | -50.69140 | 206 ft | 1 kts | 239° |
| 2026-04-27 07:09 | 67.01526 | -50.69725 | 203 ft | 78 kts | 242° |
| 2026-04-27 07:09 | 67.01295 | -50.70816 | 200 ft | 132 kts | 242° |
| 2026-04-27 07:09 | 67.00771 | -50.73220 | 579 ft | 160 kts | 245° |
| 2026-04-27 07:09 | 67.00210 | -50.75653 | 1460 ft | 158 kts | 245° |
| 2026-04-27 07:10 | 66.99629 | -50.78142 | 2279 ft | 174 kts | 243° |
| 2026-04-27 07:10 | 66.98929 | -50.80994 | 2744 ft | 204 kts | 241° |
| 2026-04-27 07:10 | 66.98054 | -50.84171 | 3175 ft | 232 kts | 234° |
| 2026-04-27 07:10 | 66.96773 | -50.86948 | 3836 ft | 253 kts | 211° |
| 2026-04-27 07:11 | 66.95010 | -50.87910 | 4548 ft | 271 kts | 175° |
| 2026-04-27 07:11 | 66.93287 | -50.86142 | 5411 ft | 274 kts | 137° |
| 2026-04-27 07:11 | 66.92244 | -50.82192 | 6443 ft | 264 kts | 101° |
| 2026-04-27 07:11 | 66.92110 | -50.77665 | 7414 ft | 259 kts | 83° |
| 2026-04-27 07:12 | 66.92195 | -50.73047 | 8343 ft | 263 kts | 83° |
| 2026-04-27 07:12 | 66.92233 | -50.68341 | 9306 ft | 267 kts | 86° |
| 2026-04-27 07:12 | 66.92207 | -50.63575 | 10219 ft | 272 kts | 87° |
| 2026-04-27 07:12 | 66.92154 | -50.58576 | 10688 ft | 293 kts | 88° |
| 2026-04-27 07:13 | 66.92083 | -50.53161 | 11072 ft | 317 kts | 89° |
| 2026-04-27 07:13 | 66.91995 | -50.47363 | 11594 ft | 335 kts | 90° |
| 2026-04-27 07:13 | 66.91891 | -50.41349 | 12421 ft | 343 kts | 90° |
| 2026-04-27 07:13 | 66.91781 | -50.35232 | 13360 ft | 348 kts | 91° |
| 2026-04-27 07:14 | 66.91670 | -50.29026 | 14191 ft | 354 kts | 91° |
| 2026-04-27 07:14 | 66.91558 | -50.22739 | 15039 ft | 356 kts | 92° |
| 2026-04-27 07:14 | 66.91444 | -50.16417 | 15895 ft | 359 kts | 94° |
| 2026-04-27 07:14 | 66.91328 | -50.10028 | 16671 ft | 363 kts | 94° |
| 2026-04-27 07:15 | 66.91212 | -50.03649 | 17460 ft | 366 kts | 95° |
| 2026-04-27 07:15 | 66.91090 | -49.97138 | 18268 ft | 369 kts | 96° |
| 2026-04-27 07:15 | 66.90966 | -49.90584 | 18925 ft | 373 kts | 96° |
| 2026-04-27 07:15 | 66.90834 | -49.83937 | 19502 ft | 379 kts | 96° |
| 2026-04-27 07:16 | 66.90696 | -49.77165 | 20100 ft | 384 kts | 96° |
| 2026-04-27 07:16 | 66.90555 | -49.70317 | 20701 ft | 389 kts | 96° |
| 2026-04-27 07:16 | 66.90410 | -49.63405 | 21283 ft | 394 kts | 96° |
| 2026-04-27 07:16 | 66.90260 | -49.56376 | 21853 ft | 399 kts | 96° |
| 2026-04-27 07:17 | 66.90107 | -49.49365 | 22400 ft | 403 kts | 96° |
| 2026-04-27 07:17 | 66.89948 | -49.42178 | 22937 ft | 408 kts | 96° |
| 2026-04-27 07:17 | 66.89785 | -49.34931 | 23466 ft | 413 kts | 96° |
| 2026-04-27 07:17 | 66.89615 | -49.27568 | 23901 ft | 417 kts | 96° |
| 2026-04-27 07:18 | 66.89441 | -49.20160 | 24313 ft | 421 kts | 96° |
| 2026-04-27 07:18 | 66.89261 | -49.12672 | 24735 ft | 425 kts | 96° |
| 2026-04-27 07:18 | 66.89077 | -49.05128 | 25135 ft | 429 kts | 96° |
| 2026-04-27 07:18 | 66.88887 | -48.97517 | 25513 ft | 432 kts | 96° |
| 2026-04-27 07:19 | 66.88692 | -48.89861 | 25985 ft | 434 kts | 96° |
| 2026-04-27 07:19 | 66.88495 | -48.82270 | 26371 ft | 437 kts | 96° |
| 2026-04-27 07:19 | 66.88289 | -48.74494 | 26730 ft | 442 kts | 96° |
| 2026-04-27 07:19 | 66.88077 | -48.66660 | 27098 ft | 445 kts | 96° |
| 2026-04-27 07:20 | 66.87861 | -48.58767 | 27453 ft | 449 kts | 96° |
| 2026-04-27 07:20 | 66.87639 | -48.50813 | 27796 ft | 452 kts | 97° |
| 2026-04-27 07:20 | 66.87413 | -48.42854 | 28313 ft | 451 kts | 97° |
| 2026-04-27 07:20 | 66.87182 | -48.34886 | 28711 ft | 453 kts | 97° |
| 2026-04-27 07:21 | 66.86946 | -48.26877 | 29169 ft | 454 kts | 97° |
| 2026-04-27 07:21 | 66.86706 | -48.18864 | 29623 ft | 454 kts | 97° |
| 2026-04-27 07:21 | 66.86461 | -48.10824 | 30058 ft | 455 kts | 97° |
| 2026-04-27 07:21 | 66.86212 | -48.02789 | 30391 ft | 456 kts | 97° |
| 2026-04-27 07:22 | 66.85958 | -47.94740 | 30701 ft | 457 kts | 97° |
| 2026-04-27 07:22 | 66.85700 | -47.86683 | 30990 ft | 458 kts | 97° |
| 2026-04-27 07:22 | 66.85437 | -47.78609 | 31360 ft | 458 kts | 97° |
| 2026-04-27 07:22 | 66.85170 | -47.70549 | 31674 ft | 458 kts | 97° |
| 2026-04-27 07:23 | 66.84902 | -47.62564 | 31946 ft | 460 kts | 97° |
| 2026-04-27 07:23 | 66.84625 | -47.54477 | 32242 ft | 460 kts | 97° |
| 2026-04-27 07:23 | 66.84343 | -47.46328 | 32546 ft | 461 kts | 97° |
| 2026-04-27 07:23 | 66.84056 | -47.38174 | 32841 ft | 462 kts | 97° |
| 2026-04-27 07:24 | 66.83765 | -47.30017 | 33123 ft | 463 kts | 97° |
| 2026-04-27 07:24 | 66.83470 | -47.21863 | 33398 ft | 464 kts | 97° |
| 2026-04-27 07:24 | 66.83173 | -47.13798 | 33647 ft | 465 kts | 97° |
| 2026-04-27 07:24 | 66.82865 | -47.05525 | 33908 ft | 466 kts | 98° |
| 2026-04-27 07:25 | 66.82561 | -46.97454 | 34186 ft | 465 kts | 98° |
| 2026-04-27 07:25 | 66.82249 | -46.89290 | 34466 ft | 464 kts | 98° |
| 2026-04-27 07:25 | 66.81932 | -46.81144 | 34686 ft | 464 kts | 98° |
| 2026-04-27 07:25 | 66.81611 | -46.72977 | 34837 ft | 465 kts | 98° |
| 2026-04-27 07:26 | 66.81285 | -46.64822 | 35091 ft | 464 kts | 98° |
| 2026-04-27 07:26 | 66.80955 | -46.56647 | 35302 ft | 464 kts | 98° |
| 2026-04-27 07:26 | 66.80621 | -46.48495 | 35505 ft | 465 kts | 98° |
| 2026-04-27 07:26 | 66.80282 | -46.40320 | 35703 ft | 465 kts | 98° |
| 2026-04-27 07:27 | 66.79939 | -46.32153 | 35844 ft | 466 kts | 98° |
| 2026-04-27 07:27 | 66.79591 | -46.23990 | 36039 ft | 466 kts | 98° |
| 2026-04-27 07:27 | 66.79240 | -46.15822 | 36155 ft | 466 kts | 98° |
| 2026-04-27 07:27 | 66.78884 | -46.07652 | 36338 ft | 466 kts | 99° |
| 2026-04-27 07:28 | 66.78523 | -45.99466 | 36528 ft | 467 kts | 99° |
| 2026-04-27 07:28 | 66.78157 | -45.91284 | 36696 ft | 467 kts | 99° |
| 2026-04-27 07:28 | 66.77792 | -45.83204 | 36678 ft | 468 kts | 99° |
| 2026-04-27 07:29 | 66.77038 | -45.66800 | 36677 ft | 471 kts | 99° |
| 2026-04-27 07:29 | 66.76256 | -45.50189 | 36629 ft | 478 kts | 100° |
| 2026-04-27 07:30 | 66.75449 | -45.33415 | 36595 ft | 479 kts | 100° |
| 2026-04-27 07:30 | 66.74627 | -45.16692 | 36596 ft | 478 kts | 100° |
| 2026-04-27 07:31 | 66.73788 | -44.99993 | 36593 ft | 478 kts | 100° |
| 2026-04-27 07:31 | 66.72935 | -44.83408 | 36579 ft | 478 kts | 101° |
| 2026-04-27 07:32 | 66.72060 | -44.66743 | 36589 ft | 478 kts | 101° |
| 2026-04-27 07:32 | 66.71167 | -44.50073 | 36568 ft | 478 kts | 101° |
| 2026-04-27 07:33 | 66.70258 | -44.33438 | 36570 ft | 478 kts | 101° |
| 2026-04-27 07:33 | 66.69334 | -44.16884 | 36570 ft | 478 kts | 102° |
| 2026-04-27 07:34 | 66.68389 | -44.00273 | 36566 ft | 478 kts | 102° |
| 2026-04-27 07:34 | 66.67428 | -43.83682 | 36561 ft | 478 kts | 102° |